createdAt,value
2019-02-24T00:00:37.665Z,9.63
2019-02-24T00:03:06.203Z,8.77
2019-02-24T00:05:34.720Z,9.40
2019-02-24T00:08:03.218Z,9.83
2019-02-24T00:10:31.722Z,9.13
2019-02-24T00:13:00.217Z,9.80
2019-02-24T00:15:28.722Z,8.80
2019-02-24T00:17:57.204Z,9.10
2019-02-24T00:20:25.729Z,9.73
2019-02-24T00:22:54.214Z,9.23
2019-02-24T00:25:22.727Z,8.70
2019-02-24T00:27:51.218Z,9.23
2019-02-24T00:30:19.726Z,9.47
2019-02-24T00:32:48.371Z,9.70
2019-02-24T00:35:16.884Z,9.40
2019-02-24T00:37:45.375Z,9.07
2019-02-24T00:40:13.956Z,9.33
2019-02-24T00:42:42.603Z,9.47
2019-02-24T00:45:11.113Z,9.97
2019-02-24T00:47:39.609Z,10.17
2019-02-24T00:50:09.567Z,9.33
2019-02-24T00:52:38.071Z,10.50
2019-02-24T00:55:07.824Z,10.17
2019-02-24T00:57:36.315Z,10.17
2019-02-24T01:00:07.212Z,9.10
2019-02-24T01:02:35.692Z,9.73
2019-02-24T01:05:05.548Z,9.27
2019-02-24T01:07:34.038Z,10.30
2019-02-24T01:10:02.791Z,9.53
2019-02-24T01:12:31.288Z,9.93
2019-02-24T01:14:59.803Z,9.60
2019-02-24T01:17:28.295Z,10.53
2019-02-24T01:19:56.811Z,10.67
2019-02-24T01:22:25.301Z,10.83
2019-02-24T01:24:53.823Z,10.43
2019-02-24T01:27:22.317Z,10.27
2019-02-24T01:29:50.839Z,10.97
2019-02-24T01:32:19.336Z,11.20
2019-02-24T01:34:47.850Z,9.87
2019-02-24T01:37:16.347Z,10.43
2019-02-24T01:39:44.860Z,9.70
2019-02-24T01:42:13.414Z,10.97
2019-02-24T01:44:41.941Z,10.43
2019-02-24T01:47:10.514Z,10.17
2019-02-24T01:49:39.046Z,10.50
2019-02-24T01:52:07.546Z,10.50
2019-02-24T01:54:36.034Z,9.83
2019-02-24T01:57:04.548Z,9.97
2019-02-24T01:59:33.044Z,10.20
2019-02-24T02:02:01.561Z,9.07
2019-02-24T02:04:30.049Z,9.10
2019-02-24T02:06:58.576Z,9.27
2019-02-24T02:09:27.171Z,8.17
2019-02-24T02:11:55.695Z,8.77
2019-02-24T02:14:24.187Z,8.13
2019-02-24T02:16:52.700Z,9.57
2019-02-24T02:19:21.188Z,8.03
2019-02-24T02:21:49.697Z,7.83
2019-02-24T02:24:18.190Z,8.80
2019-02-24T02:26:46.695Z,8.77
2019-02-24T02:29:15.188Z,7.90
2019-02-24T02:31:43.695Z,8.70
2019-02-24T02:34:12.189Z,9.03
2019-02-24T02:36:40.701Z,8.03
2019-02-24T02:39:09.195Z,7.80
2019-02-24T02:41:38.944Z,8.10
2019-02-24T02:44:07.584Z,8.73
2019-02-24T02:46:36.173Z,8.23
2019-02-24T02:49:04.744Z,7.30
2019-02-24T02:51:33.323Z,8.17
2019-02-24T02:54:01.812Z,8.57
2019-02-24T02:56:30.321Z,8.20
2019-02-24T02:58:58.804Z,8.97
2019-02-24T03:01:27.325Z,8.77
2019-02-24T03:03:55.812Z,9.83
2019-02-24T03:06:25.977Z,8.73
2019-02-24T03:08:54.464Z,10.00
2019-02-24T03:11:22.985Z,10.10
2019-02-24T03:13:51.473Z,9.80
2019-02-24T03:16:23.057Z,8.67
2019-02-24T03:18:51.792Z,8.47
2019-02-24T03:21:20.375Z,9.07
2019-02-24T03:23:48.871Z,8.90
2019-02-24T03:26:17.385Z,8.10
2019-02-24T03:28:45.880Z,8.07
2019-02-24T03:31:14.396Z,8.30
2019-02-24T03:33:44.930Z,8.80
2019-02-24T03:36:13.116Z,7.63
2019-02-24T03:38:41.605Z,7.20
2019-02-24T03:41:10.125Z,7.13
2019-02-24T03:43:38.614Z,7.90
2019-02-24T03:46:07.201Z,6.77
2019-02-24T03:48:35.686Z,7.03
2019-02-24T03:51:04.198Z,7.97
2019-02-24T03:53:32.690Z,6.60
2019-02-24T03:56:01.199Z,7.30
2019-02-24T03:58:29.756Z,7.07
2019-02-24T04:00:58.341Z,6.53
2019-02-24T04:03:26.892Z,7.17
2019-02-24T04:05:55.453Z,6.23
2019-02-24T04:08:23.979Z,6.70
2019-02-24T04:10:52.489Z,6.67
2019-02-24T04:13:20.985Z,7.50
2019-02-24T04:15:49.498Z,7.77
2019-02-24T04:18:17.991Z,7.13
2019-02-24T04:20:46.479Z,7.20
2019-02-24T04:23:15.001Z,7.13
2019-02-24T04:25:43.489Z,7.30
2019-02-24T04:28:12.009Z,7.33
2019-02-24T04:30:40.502Z,7.73
2019-02-24T04:33:09.011Z,7.60
2019-02-24T04:35:37.495Z,7.83
2019-02-24T04:38:06.020Z,8.03
2019-02-24T04:40:34.501Z,7.80
2019-02-24T04:43:03.024Z,8.20
2019-02-24T04:45:31.495Z,7.77
2019-02-24T04:48:00.013Z,8.53
2019-02-24T04:50:28.517Z,7.80
2019-02-24T04:52:57.022Z,7.50
2019-02-24T04:55:25.508Z,8.67
2019-02-24T04:57:54.029Z,8.43
2019-02-24T05:00:22.522Z,7.93
2019-02-24T05:02:51.030Z,7.23
2019-02-24T05:05:19.520Z,7.60
2019-02-24T05:07:48.030Z,7.63
2019-02-24T05:10:16.516Z,7.57
2019-02-24T05:12:45.026Z,7.73
2019-02-24T05:15:13.588Z,7.37
2019-02-24T05:17:42.096Z,7.37
2019-02-24T05:20:11.454Z,7.70
2019-02-24T05:22:39.963Z,7.10
2019-02-24T05:25:08.668Z,7.00
2019-02-24T05:27:37.174Z,7.37
2019-02-24T05:30:06.398Z,7.10
2019-02-24T05:32:34.911Z,7.23
2019-02-24T05:35:03.469Z,6.93
2019-02-24T05:37:31.980Z,7.10
2019-02-24T05:40:00.466Z,7.00
2019-02-24T05:42:28.988Z,7.20
2019-02-24T05:44:57.466Z,7.10
2019-02-24T05:47:25.981Z,8.47
2019-02-24T05:49:54.508Z,7.90
2019-02-24T05:52:23.019Z,7.20
2019-02-24T05:54:51.996Z,6.97
2019-02-24T05:57:20.605Z,6.53
2019-02-24T05:59:55.224Z,7.00
2019-02-24T06:02:19.326Z,7.57
2019-02-24T06:04:47.816Z,7.03
2019-02-24T06:07:16.332Z,7.27
2019-02-24T06:09:44.817Z,7.10
2019-02-24T06:12:13.331Z,6.97
2019-02-24T06:14:41.837Z,6.73
2019-02-24T06:17:10.394Z,7.33
2019-02-24T06:19:38.879Z,6.77
2019-02-24T06:22:07.386Z,7.00
2019-02-24T06:24:35.866Z,6.43
2019-02-24T06:27:04.386Z,6.90
2019-02-24T06:29:32.894Z,6.97
2019-02-24T06:32:01.410Z,7.40
2019-02-24T06:34:29.889Z,7.93
2019-02-24T06:36:58.410Z,7.63
2019-02-24T06:39:26.877Z,6.77
2019-02-24T06:41:55.380Z,8.23
2019-02-24T06:44:23.868Z,8.63
2019-02-24T06:46:52.359Z,11.07
2019-02-24T06:49:20.874Z,11.77
2019-02-24T06:51:49.360Z,10.97
2019-02-24T06:54:17.879Z,8.97
2019-02-24T06:56:46.355Z,7.43
2019-02-24T06:59:14.881Z,7.57
2019-02-24T07:01:43.429Z,7.73
2019-02-24T07:04:11.934Z,7.33
2019-02-24T07:06:40.425Z,7.30
2019-02-24T07:09:08.999Z,7.40
2019-02-24T07:11:37.506Z,7.63
2019-02-24T07:14:05.994Z,6.97
2019-02-24T07:16:34.480Z,6.90
2019-02-24T07:19:02.998Z,6.23
2019-02-24T07:21:31.475Z,6.47
2019-02-24T07:23:59.990Z,7.07
2019-02-24T07:26:28.476Z,6.37
2019-02-24T07:28:56.993Z,6.43
2019-02-24T07:31:25.481Z,6.67
2019-02-24T07:33:53.986Z,6.80
2019-02-24T07:36:22.483Z,6.70
2019-02-24T07:38:51.005Z,6.53
2019-02-24T07:41:19.495Z,7.10
2019-02-24T07:43:48.002Z,6.50
2019-02-24T07:46:16.492Z,6.87
2019-02-24T07:48:44.999Z,6.70
2019-02-24T07:51:13.849Z,6.97
2019-02-24T07:53:42.420Z,7.20
2019-02-24T07:56:10.931Z,13.53
2019-02-24T07:58:39.441Z,9.10
2019-02-24T08:01:07.978Z,7.83
2019-02-24T08:03:36.503Z,6.67
2019-02-24T08:06:04.988Z,6.47
2019-02-24T08:08:33.492Z,6.77
2019-02-24T08:11:02.745Z,7.00
2019-02-24T08:13:31.253Z,6.13
2019-02-24T08:19:35.948Z,6.57
2019-02-24T08:22:04.424Z,6.47
2019-02-24T08:24:32.962Z,6.70
2019-02-24T08:27:01.455Z,7.00
2019-02-24T08:29:30.723Z,7.27
2019-02-24T08:31:59.294Z,6.73
2019-02-24T08:34:29.323Z,6.67
2019-02-24T08:36:57.806Z,6.83
2019-02-24T08:39:26.311Z,7.27
2019-02-24T08:41:54.811Z,6.20
2019-02-24T08:44:23.333Z,7.00
2019-02-24T08:50:10.649Z,6.50
2019-02-24T08:52:40.037Z,6.77
2019-02-24T08:57:51.005Z,7.37
2019-02-24T09:03:11.701Z,7.63
2019-02-24T09:05:41.174Z,7.20
2019-02-24T09:08:09.685Z,7.00
2019-02-24T09:10:38.171Z,7.37
2019-02-24T09:13:06.796Z,7.40
2019-02-24T09:15:35.274Z,7.43
2019-02-24T09:18:03.759Z,7.17
2019-02-24T09:20:32.263Z,7.40
2019-02-24T09:23:00.749Z,7.43
2019-02-24T09:25:29.262Z,7.40
2019-02-24T09:27:57.983Z,8.13
2019-02-24T09:30:26.492Z,8.27
2019-02-24T09:32:55.014Z,7.93
2019-02-24T09:35:25.081Z,9.17
2019-02-24T09:37:55.386Z,9.33
2019-02-24T09:40:23.821Z,7.93
2019-02-24T09:42:55.341Z,8.17
2019-02-24T09:45:23.873Z,8.13
2019-02-24T09:47:52.363Z,7.83
2019-02-24T09:50:20.904Z,10.17
2019-02-24T09:52:49.403Z,8.13
2019-02-24T09:55:17.729Z,9.07
2019-02-24T09:57:46.261Z,9.90
2019-02-24T10:00:16.611Z,7.83
2019-02-24T10:02:45.950Z,8.37
2019-02-24T10:05:14.517Z,7.63
2019-02-24T10:07:43.019Z,7.73
2019-02-24T10:10:12.589Z,7.87
2019-02-24T10:12:41.071Z,7.83
2019-02-24T10:15:14.239Z,8.03
2019-02-24T10:17:42.723Z,7.67
2019-02-24T10:20:12.365Z,7.70
2019-02-24T10:22:40.916Z,7.90
2019-02-24T10:25:10.603Z,7.33
2019-02-24T10:27:39.710Z,7.53
2019-02-24T10:30:11.128Z,7.50
2019-02-24T10:32:39.942Z,7.17
2019-02-24T10:37:50.428Z,7.10
2019-02-24T10:40:24.904Z,6.73
2019-02-24T10:42:53.388Z,7.30
2019-02-24T10:45:21.915Z,7.33
2019-02-24T10:47:50.397Z,7.20
2019-02-24T10:50:18.910Z,7.87
2019-02-24T10:52:47.452Z,7.37
2019-02-24T10:55:15.924Z,7.90
2019-02-24T10:57:44.410Z,7.80
2019-02-24T11:00:20.674Z,6.80
2019-02-24T11:02:49.169Z,7.80
2019-02-24T11:05:17.816Z,7.67
2019-02-24T11:07:46.306Z,8.17
2019-02-24T11:10:14.976Z,6.77
2019-02-24T11:12:43.462Z,7.80
2019-02-24T11:15:13.019Z,7.30
2019-02-24T11:17:41.635Z,6.47
2019-02-24T11:20:14.848Z,7.10
2019-02-24T11:22:43.732Z,7.00
2019-02-24T11:25:12.778Z,7.40
2019-02-24T11:27:41.273Z,6.63
2019-02-24T11:30:14.762Z,7.53
2019-02-24T11:32:43.283Z,7.37
2019-02-24T11:35:12.649Z,8.33
2019-02-24T11:37:41.189Z,7.97
2019-02-24T11:40:17.428Z,8.70
2019-02-24T11:42:45.993Z,8.33
2019-02-24T11:45:14.576Z,8.77
2019-02-24T11:47:43.187Z,8.87
2019-02-24T11:50:12.722Z,8.87
2019-02-24T11:52:41.366Z,8.60
2019-02-24T11:55:30.140Z,8.37
2019-02-24T11:58:04.584Z,8.47
2019-02-24T12:00:33.547Z,8.73
2019-02-24T12:03:02.052Z,9.07
2019-02-24T12:05:34.518Z,8.80
2019-02-24T12:08:03.480Z,6.67
2019-02-24T12:10:31.992Z,7.63
2019-02-24T12:13:00.483Z,7.53
2019-02-24T12:15:28.993Z,5.00
2019-02-24T12:17:57.484Z,5.27
2019-02-24T12:20:26.040Z,4.93
2019-02-24T12:22:54.531Z,4.60
2019-02-24T12:25:24.179Z,3.83
2019-02-24T12:27:52.666Z,4.13
2019-02-24T12:30:21.210Z,4.20
2019-02-24T12:32:49.667Z,4.53
2019-02-24T12:35:18.181Z,4.13
2019-02-24T12:37:46.659Z,4.07
2019-02-24T12:40:16.014Z,4.53
2019-02-24T12:42:44.501Z,4.63
2019-02-24T12:45:13.089Z,5.00
2019-02-24T12:47:41.572Z,4.67
2019-02-24T12:50:16.438Z,4.57
2019-02-24T12:52:45.142Z,4.17
2019-02-24T12:57:55.957Z,4.00
2019-02-24T13:00:26.297Z,2.52
2019-02-24T13:02:55.216Z,2.93
2019-02-24T13:05:24.358Z,3.30
2019-02-24T13:07:56.470Z,4.10
2019-02-24T13:10:28.598Z,3.77
2019-02-24T13:13:16.579Z,3.80
2019-02-24T13:22:55.979Z,3.90
2019-02-24T13:30:38.864Z,3.60
2019-02-24T13:33:07.611Z,3.52
2019-02-24T13:38:18.650Z,4.75
2019-02-24T13:40:47.321Z,3.85
2019-02-24T13:43:17.716Z,4.35
2019-02-24T13:48:43.551Z,2.80
2019-02-24T13:51:12.345Z,2.80
2019-02-24T13:53:41.293Z,2.50
2019-02-24T13:58:52.039Z,5.95
2019-02-24T14:01:20.585Z,3.10
2019-02-24T14:03:49.747Z,2.92
2019-02-24T14:06:20.328Z,2.70
2019-02-24T14:08:48.601Z,2.20
2019-02-24T14:11:17.105Z,2.77
2019-02-24T14:13:45.878Z,3.05
2019-02-24T14:16:14.386Z,7.15
2019-02-24T14:18:43.221Z,2.40
2019-02-24T14:21:12.317Z,7.22
2019-02-24T14:23:42.839Z,2.85
2019-02-24T14:28:53.582Z,3.25
2019-02-24T14:31:22.104Z,3.33
2019-02-24T14:33:50.591Z,3.52
2019-02-24T14:36:19.106Z,3.37
2019-02-24T14:38:47.618Z,3.60
2019-02-24T14:41:16.129Z,3.25
2019-02-24T14:43:46.321Z,4.20
2019-02-24T14:46:14.835Z,3.98
2019-02-24T14:48:44.772Z,3.97
2019-02-24T14:51:13.323Z,3.80
2019-02-24T14:53:43.276Z,3.77
2019-02-24T14:56:11.785Z,4.70
2019-02-24T14:58:40.286Z,6.00
2019-02-24T15:01:08.813Z,9.17
2019-02-24T15:03:38.352Z,5.73
2019-02-24T15:06:06.913Z,4.77
2019-02-24T15:08:35.778Z,5.20
2019-02-24T15:11:04.626Z,7.63
2019-02-24T15:13:33.315Z,5.30
2019-02-24T15:16:01.817Z,5.27
2019-02-24T15:18:30.303Z,4.80
2019-02-24T15:20:58.890Z,7.30
2019-02-24T15:23:27.388Z,5.20
2019-02-24T15:25:55.886Z,5.13
2019-02-24T15:28:24.402Z,5.70
2019-02-24T15:30:52.894Z,5.03
2019-02-24T15:33:21.397Z,4.70
2019-02-24T15:35:49.890Z,5.43
2019-02-24T15:38:19.271Z,5.50
2019-02-24T15:40:48.231Z,11.97
2019-02-24T15:43:17.656Z,5.63
2019-02-24T15:48:45.254Z,6.10
2019-02-24T15:51:13.800Z,6.40
2019-02-24T15:53:42.276Z,6.03
2019-02-24T15:56:11.951Z,6.77
2019-02-24T15:58:42.682Z,4.60
2019-02-24T16:01:11.241Z,5.30
2019-02-24T16:03:39.744Z,5.47
2019-02-24T16:06:08.233Z,5.40
2019-02-24T16:08:36.778Z,5.30
2019-02-24T16:11:05.269Z,5.13
2019-02-24T16:13:33.756Z,5.23
2019-02-24T16:16:02.372Z,5.13
2019-02-24T16:18:30.887Z,5.30
2019-02-24T16:20:59.378Z,5.53
2019-02-24T16:23:27.885Z,5.77
2019-02-24T16:25:56.370Z,6.30
2019-02-24T16:28:24.872Z,5.70
2019-02-24T16:30:53.353Z,5.33
2019-02-24T16:33:22.168Z,5.07
2019-02-24T16:35:50.881Z,6.00
2019-02-24T16:38:20.862Z,5.90
2019-02-24T16:40:49.560Z,6.03
2019-02-24T16:43:18.082Z,5.67
2019-02-24T16:45:46.563Z,5.77
2019-02-24T16:48:15.101Z,6.37
2019-02-24T16:50:43.576Z,6.27
2019-02-24T16:53:12.085Z,6.57
2019-02-24T16:55:40.640Z,6.87
2019-02-24T16:58:09.150Z,6.97
2019-02-24T17:00:38.047Z,5.93
2019-02-24T17:03:07.262Z,6.57
2019-02-24T17:05:36.270Z,6.87
2019-02-24T17:08:04.891Z,6.60
2019-02-24T17:10:35.870Z,7.00
2019-02-24T17:13:04.969Z,6.43
2019-02-24T17:15:33.450Z,7.30
2019-02-24T17:18:01.957Z,7.03
2019-02-24T17:20:31.132Z,7.10
2019-02-24T17:22:59.625Z,7.30
2019-02-24T17:25:28.114Z,6.83
2019-02-24T17:27:56.802Z,7.07
2019-02-24T17:30:25.278Z,7.60
2019-02-24T17:32:53.791Z,7.00
2019-02-24T17:35:22.703Z,7.30
2019-02-24T17:37:51.243Z,7.30
2019-02-24T17:40:22.030Z,7.60
2019-02-24T17:42:51.127Z,7.90
2019-02-24T17:45:19.950Z,7.80
2019-02-24T17:47:48.777Z,7.67
2019-02-24T17:50:18.463Z,7.87
2019-02-24T17:52:47.546Z,8.20
2019-02-24T17:55:18.424Z,7.50
2019-02-24T17:57:47.010Z,8.23
2019-02-24T18:00:43.033Z,7.80
2019-02-24T18:03:11.908Z,8.33
2019-02-24T18:05:40.455Z,7.93
2019-02-24T18:08:09.316Z,7.97
2019-02-24T18:10:38.218Z,8.23
2019-02-24T18:13:06.883Z,8.43
2019-02-24T18:15:35.788Z,8.83
2019-02-24T18:21:00.277Z,11.57
2019-02-24T18:23:30.453Z,10.80
2019-02-24T18:29:11.383Z,10.90
2019-02-24T18:31:41.817Z,11.23
2019-02-24T18:34:10.515Z,10.77
2019-02-24T18:36:39.438Z,10.67
2019-02-24T18:39:08.724Z,10.73
2019-02-24T18:41:37.667Z,9.93
2019-02-24T18:44:06.623Z,10.77
2019-02-24T18:46:35.411Z,11.60
2019-02-24T18:49:04.397Z,10.30
2019-02-24T18:51:32.985Z,10.23
2019-02-24T18:54:01.511Z,8.60
2019-02-24T18:56:30.232Z,9.30
2019-02-24T18:58:59.284Z,9.03
2019-02-24T19:01:27.864Z,9.77
2019-02-24T19:03:58.010Z,11.23
2019-02-24T19:06:27.931Z,10.60
2019-02-24T19:09:02.346Z,11.30
2019-02-24T19:11:30.942Z,15.90
2019-02-24T19:13:59.473Z,10.23
2019-02-24T19:16:27.989Z,7.23
2019-02-24T19:18:56.515Z,7.07
2019-02-24T19:21:25.111Z,7.93
2019-02-24T19:23:53.659Z,7.07
2019-02-24T19:26:22.148Z,7.27
2019-02-24T19:28:50.735Z,7.63
2019-02-24T19:31:19.214Z,8.00
2019-02-24T19:33:47.725Z,8.63
2019-02-24T19:36:16.239Z,8.63
2019-02-24T19:38:44.748Z,8.90
2019-02-24T19:41:13.231Z,8.63
2019-02-24T19:43:41.765Z,8.67
2019-02-24T19:46:10.260Z,8.90
2019-02-24T19:48:42.328Z,8.87
2019-02-24T19:51:11.923Z,9.47
2019-02-24T19:53:40.426Z,8.97
2019-02-24T19:56:08.943Z,8.80
2019-02-24T19:58:51.322Z,8.93
2019-02-24T20:01:19.862Z,9.00
2019-02-24T20:03:50.496Z,8.70
2019-02-24T20:06:19.056Z,8.03
2019-02-24T20:08:51.920Z,8.70
2019-02-24T20:11:20.511Z,8.43
2019-02-24T20:13:49.206Z,7.60
2019-02-24T20:16:18.015Z,8.50
2019-02-24T20:18:46.627Z,7.13
2019-02-24T20:21:15.225Z,6.90
2019-02-24T20:23:53.371Z,6.77
2019-02-24T20:26:21.948Z,6.90
2019-02-24T20:28:50.559Z,8.37
2019-02-24T20:31:20.348Z,7.37
2019-02-24T20:33:51.226Z,7.73
2019-02-24T20:36:20.441Z,7.77
2019-02-24T20:38:49.134Z,8.00
2019-02-24T20:41:17.862Z,7.77
2019-02-24T20:43:47.423Z,8.10
2019-02-24T20:46:15.911Z,7.13
2019-02-24T20:48:44.423Z,7.50
2019-02-24T20:51:12.947Z,7.70
2019-02-24T20:53:41.678Z,7.47
2019-02-24T20:56:10.762Z,7.43
2019-02-24T20:58:40.348Z,7.37
2019-02-24T21:01:10.584Z,7.47
2019-02-24T21:03:39.618Z,7.30
2019-02-24T21:06:08.271Z,8.23
2019-02-24T21:08:37.557Z,8.97
2019-02-24T21:11:06.222Z,8.37
2019-02-24T21:13:34.733Z,8.03
2019-02-24T21:16:03.432Z,8.63
2019-02-24T21:18:32.657Z,8.33
2019-02-24T21:21:01.320Z,8.73
2019-02-24T21:23:32.386Z,8.33
2019-02-24T21:26:00.981Z,8.43
2019-02-24T21:28:29.519Z,7.80
2019-02-24T21:30:58.089Z,7.53
2019-02-24T21:33:26.687Z,7.73
2019-02-24T21:35:55.231Z,7.40
2019-02-24T21:38:23.768Z,7.17
2019-02-24T21:40:52.333Z,6.83
2019-02-24T21:43:20.901Z,7.50
2019-02-24T21:45:49.528Z,6.60
2019-02-24T21:48:18.160Z,7.30
2019-02-24T21:50:48.591Z,7.50
2019-02-24T21:53:17.389Z,7.60
2019-02-24T21:55:46.025Z,7.80
2019-02-24T21:58:15.057Z,7.53
2019-02-24T22:00:43.471Z,7.50
2019-02-24T22:03:12.185Z,7.87
2019-02-24T22:05:42.352Z,8.17
2019-02-24T22:08:10.893Z,8.43
2019-02-24T22:10:42.669Z,8.20
2019-02-24T22:13:11.243Z,8.83
2019-02-24T22:15:39.866Z,7.67
2019-02-24T22:18:08.378Z,8.20
2019-02-24T22:20:37.271Z,8.17
2019-02-24T22:23:05.772Z,9.17
2019-02-24T22:25:36.404Z,8.97
2019-02-24T22:28:06.521Z,9.03
2019-02-24T22:30:36.064Z,8.40
2019-02-24T22:33:04.571Z,9.40
2019-02-24T22:35:34.747Z,8.83
2019-02-24T22:38:03.164Z,8.57
2019-02-24T22:40:31.704Z,9.00
2019-02-24T22:43:00.210Z,8.97
2019-02-24T22:45:28.727Z,10.63
2019-02-24T22:47:57.221Z,9.90
2019-02-24T22:50:25.769Z,10.13
2019-02-24T22:52:55.223Z,10.40
2019-02-24T22:58:05.722Z,9.70
2019-02-24T23:00:53.594Z,12.20
2019-02-24T23:03:30.023Z,11.30
2019-02-24T23:06:00.323Z,11.53
2019-02-24T23:08:28.885Z,9.23
2019-02-24T23:10:57.398Z,7.80
2019-02-24T23:13:25.967Z,10.63
2019-02-24T23:15:54.482Z,9.10
2019-02-24T23:18:22.963Z,8.97
2019-02-24T23:20:51.490Z,8.37
2019-02-24T23:23:20.062Z,7.40
2019-02-24T23:25:49.036Z,6.00
2019-02-24T23:28:18.554Z,6.70
2019-02-24T23:31:07.991Z,6.90
2019-02-24T23:33:36.497Z,6.50
2019-02-24T23:36:05.081Z,6.73
2019-02-24T23:38:33.581Z,6.33
2019-02-24T23:41:02.173Z,6.90
2019-02-24T23:43:30.801Z,6.97
2019-02-24T23:45:59.263Z,6.10
2019-02-24T23:48:27.750Z,5.93
2019-02-24T23:50:56.292Z,6.13
2019-02-24T23:53:25.328Z,5.73
